createdAt,value
2022-12-20T00:01:24.805Z,2.67
2022-12-20T00:03:53.783Z,2.38
2022-12-20T00:06:21.289Z,2.45
2022-12-20T00:08:52.633Z,2.20
2022-12-20T00:11:19.297Z,2.55
2022-12-20T00:13:49.112Z,2.60
2022-12-20T00:16:18.384Z,2.30
2022-12-20T00:18:45.605Z,2.55
2022-12-20T00:21:14.392Z,2.78
2022-12-20T00:23:41.738Z,2.67
2022-12-20T00:26:11.596Z,2.47
2022-12-20T00:28:39.292Z,3.20
2022-12-20T00:31:07.885Z,2.50
2022-12-20T00:33:36.358Z,2.65
2022-12-20T00:36:03.890Z,2.47
2022-12-20T00:38:30.842Z,2.45
2022-12-20T00:41:04.309Z,2.30
2022-12-20T00:43:31.914Z,2.60
2022-12-20T00:45:59.033Z,2.30
2022-12-20T00:48:25.893Z,2.38
2022-12-20T00:50:52.896Z,2.25
2022-12-20T00:53:26.027Z,2.60
2022-12-20T00:55:53.128Z,2.13
2022-12-20T00:58:19.868Z,2.38
2022-12-20T01:00:52.236Z,2.28
2022-12-20T01:03:24.429Z,2.30
2022-12-20T01:05:59.261Z,2.15
2022-12-20T01:08:28.604Z,2.17
2022-12-20T01:11:19.023Z,2.20
2022-12-20T01:13:48.828Z,2.20
2022-12-20T01:16:24.371Z,2.17
2022-12-20T01:18:51.754Z,1.88
2022-12-20T01:21:21.110Z,2.40
2022-12-20T01:23:48.145Z,2.00
2022-12-20T01:26:18.385Z,1.90
2022-12-20T01:28:47.042Z,2.50
2022-12-20T01:31:17.212Z,2.20
2022-12-20T01:33:44.970Z,2.10
2022-12-20T01:36:14.548Z,2.03
2022-12-20T01:38:41.699Z,2.15
2022-12-20T01:41:08.536Z,2.03
2022-12-20T01:43:57.610Z,2.65
2022-12-20T01:46:30.824Z,2.15
2022-12-20T01:49:33.655Z,1.98
2022-12-20T01:52:13.497Z,2.17
2022-12-20T01:54:45.864Z,2.40
2022-12-20T01:57:16.316Z,1.92
2022-12-20T01:59:45.146Z,1.65
2022-12-20T02:02:12.878Z,1.95
2022-12-20T02:04:40.241Z,1.50
2022-12-20T02:07:08.439Z,1.90
2022-12-20T02:09:37.607Z,1.80
2022-12-20T02:12:19.390Z,1.77
2022-12-20T02:14:58.101Z,1.75
2022-12-20T02:17:37.715Z,1.90
2022-12-20T02:20:40.941Z,1.85
2022-12-20T02:23:26.506Z,1.80
2022-12-20T02:26:17.197Z,1.80
2022-12-20T02:29:10.296Z,1.83
2022-12-20T02:31:46.577Z,1.50
2022-12-20T02:34:14.928Z,2.30
2022-12-20T02:36:42.332Z,2.00
2022-12-20T02:39:15.029Z,1.98
2022-12-20T02:41:48.484Z,1.60
2022-12-20T02:44:37.878Z,1.58
2022-12-20T02:47:10.054Z,1.85
2022-12-20T02:49:41.179Z,2.00
2022-12-20T02:52:10.569Z,1.40
2022-12-20T02:54:38.473Z,1.50
2022-12-20T02:57:33.751Z,1.30
2022-12-20T03:00:16.849Z,1.60
2022-12-20T03:03:05.790Z,1.67
2022-12-20T03:05:35.285Z,1.50
2022-12-20T03:08:02.206Z,1.60
2022-12-20T03:10:29.439Z,1.33
2022-12-20T03:12:56.080Z,1.40
2022-12-20T03:15:23.848Z,1.33
2022-12-20T03:17:53.669Z,1.50
2022-12-20T03:20:20.366Z,1.52
2022-12-20T03:22:47.082Z,1.60
2022-12-20T03:25:14.022Z,1.48
2022-12-20T03:27:40.805Z,1.30
2022-12-20T03:30:09.267Z,1.55
2022-12-20T03:32:37.588Z,1.63
2022-12-20T03:35:05.008Z,1.55
2022-12-20T03:37:36.301Z,1.30
2022-12-20T03:40:06.088Z,1.50
2022-12-20T03:42:33.532Z,1.67
2022-12-20T03:45:00.265Z,1.52
2022-12-20T03:47:29.102Z,1.27
2022-12-20T03:49:57.355Z,1.50
2022-12-20T03:52:23.984Z,1.70
2022-12-20T03:54:50.605Z,1.20
2022-12-20T03:57:20.558Z,1.25
2022-12-20T03:59:50.197Z,1.50
2022-12-20T04:02:19.234Z,1.80
2022-12-20T04:04:46.015Z,1.25
2022-12-20T04:07:15.809Z,1.90
2022-12-20T04:09:45.935Z,1.60
2022-12-20T04:12:13.936Z,1.38
2022-12-20T04:14:40.767Z,1.52
2022-12-20T04:17:07.708Z,1.33
2022-12-20T04:19:35.266Z,1.73
2022-12-20T04:22:05.977Z,1.48
2022-12-20T04:24:46.057Z,1.63
2022-12-20T04:27:24.474Z,1.63
2022-12-20T04:29:53.359Z,1.60
2022-12-20T04:32:21.023Z,1.70
2022-12-20T04:34:48.868Z,1.63
2022-12-20T04:37:15.591Z,1.83
2022-12-20T04:39:50.336Z,1.50
2022-12-20T04:42:20.566Z,1.60
2022-12-20T04:44:47.655Z,1.60
2022-12-20T04:47:18.704Z,1.85
2022-12-20T04:49:45.779Z,2.08
2022-12-20T04:52:31.128Z,1.90
2022-12-20T04:54:57.823Z,2.00
2022-12-20T04:57:30.676Z,1.98
2022-12-20T04:59:58.578Z,1.77
2022-12-20T05:02:25.498Z,2.00
2022-12-20T05:05:01.138Z,1.80
2022-12-20T05:07:29.130Z,1.80
2022-12-20T05:09:56.730Z,1.60
2022-12-20T05:12:23.396Z,2.10
2022-12-20T05:14:50.717Z,1.90
2022-12-20T05:17:20.380Z,1.90
2022-12-20T05:19:47.134Z,1.73
2022-12-20T05:22:34.305Z,2.15
2022-12-20T05:25:30.217Z,2.08
2022-12-20T05:28:00.629Z,2.05
2022-12-20T05:30:30.673Z,1.85
2022-12-20T05:32:57.699Z,2.08
2022-12-20T05:35:24.946Z,2.00
2022-12-20T05:37:59.054Z,1.92
2022-12-20T05:40:26.437Z,1.80
2022-12-20T05:42:53.384Z,1.58
2022-12-20T05:45:21.966Z,1.77
2022-12-20T05:47:59.180Z,1.92
2022-12-20T05:50:26.380Z,2.35
2022-12-20T05:53:12.988Z,2.10
2022-12-20T05:55:52.666Z,1.98
2022-12-20T05:58:21.062Z,2.03
2022-12-20T06:00:56.359Z,1.98
2022-12-20T06:03:25.233Z,1.80
2022-12-20T06:05:52.159Z,2.28
2022-12-20T06:08:25.819Z,1.98
2022-12-20T06:10:54.249Z,1.80
2022-12-20T06:13:21.959Z,1.88
2022-12-20T06:15:51.289Z,1.98
2022-12-20T06:18:19.288Z,1.90
2022-12-20T06:20:51.319Z,1.70
2022-12-20T06:23:21.237Z,1.75
2022-12-20T06:26:09.312Z,2.25
2022-12-20T06:28:43.541Z,2.00
2022-12-20T06:31:11.121Z,2.05
2022-12-20T06:33:41.654Z,1.83
2022-12-20T06:36:08.387Z,2.28
2022-12-20T06:38:35.250Z,1.85
2022-12-20T06:41:01.929Z,1.90
2022-12-20T06:43:28.578Z,2.20
2022-12-20T06:45:55.302Z,2.08
2022-12-20T06:48:22.142Z,1.83
2022-12-20T06:50:55.652Z,2.10
2022-12-20T06:53:24.003Z,1.70
2022-12-20T06:55:51.494Z,1.90
2022-12-20T06:58:19.539Z,2.10
2022-12-20T07:00:48.264Z,2.42
2022-12-20T07:03:15.113Z,2.08
2022-12-20T07:05:41.923Z,2.20
2022-12-20T07:08:08.985Z,1.90
2022-12-20T07:10:37.239Z,1.83
2022-12-20T07:13:03.905Z,1.70
2022-12-20T07:15:30.560Z,2.20
2022-12-20T07:17:57.219Z,2.33
2022-12-20T07:20:23.937Z,2.30
2022-12-20T07:22:50.644Z,2.53
2022-12-20T07:25:17.361Z,2.30
2022-12-20T07:27:47.667Z,2.10
2022-12-20T07:30:14.708Z,2.30
2022-12-20T07:32:41.364Z,2.17
2022-12-20T07:35:10.430Z,2.40
2022-12-20T07:37:37.242Z,2.35
2022-12-20T07:40:05.337Z,2.58
2022-12-20T07:42:36.725Z,2.33
2022-12-20T07:45:06.374Z,1.85
2022-12-20T07:47:35.113Z,2.20
2022-12-20T07:50:02.949Z,2.70
2022-12-20T07:52:32.815Z,2.30
2022-12-20T07:55:02.950Z,2.05
2022-12-20T07:57:40.006Z,2.10
2022-12-20T08:00:07.326Z,1.98
2022-12-20T08:02:55.871Z,2.75
2022-12-20T08:05:23.209Z,2.30
2022-12-20T08:07:56.846Z,2.05
2022-12-20T08:10:26.302Z,2.60
2022-12-20T08:12:53.073Z,2.10
2022-12-20T08:15:22.099Z,2.20
2022-12-20T08:17:49.790Z,2.10
2022-12-20T08:20:17.133Z,1.98
2022-12-20T08:22:43.774Z,2.35
2022-12-20T08:25:11.831Z,2.17
2022-12-20T08:27:38.727Z,2.30
2022-12-20T08:30:08.302Z,2.22
2022-12-20T08:32:35.122Z,2.70
2022-12-20T08:35:01.915Z,2.10
2022-12-20T08:37:28.595Z,2.60
2022-12-20T08:39:55.208Z,2.10
2022-12-20T08:42:22.304Z,1.83
2022-12-20T08:44:48.925Z,1.90
2022-12-20T08:47:15.545Z,1.92
2022-12-20T08:49:47.331Z,1.77
2022-12-20T08:52:14.731Z,1.58
2022-12-20T08:54:41.390Z,1.95
2022-12-20T08:57:08.791Z,2.00
2022-12-20T08:59:35.507Z,2.88
2022-12-20T09:02:02.190Z,2.30
2022-12-20T09:04:29.215Z,1.90
2022-12-20T09:06:55.861Z,1.83
2022-12-20T09:09:22.556Z,2.05
2022-12-20T09:11:49.215Z,1.70
2022-12-20T09:14:15.871Z,1.60
2022-12-20T09:16:42.547Z,2.15
2022-12-20T09:19:12.913Z,1.70
2022-12-20T09:21:39.736Z,1.88
2022-12-20T09:24:07.307Z,1.70
2022-12-20T09:26:35.219Z,1.70
2022-12-20T09:29:02.130Z,1.90
2022-12-20T09:31:29.302Z,1.73
2022-12-20T09:33:57.953Z,1.90
2022-12-20T09:36:26.358Z,1.98
2022-12-20T09:38:54.992Z,1.83
2022-12-20T09:41:39.564Z,1.80
2022-12-20T09:44:30.964Z,1.42
2022-12-20T09:47:10.089Z,1.58
2022-12-20T09:49:41.316Z,1.50
2022-12-20T09:52:45.353Z,1.70
2022-12-20T09:55:36.282Z,1.40
2022-12-20T09:58:26.240Z,1.40
2022-12-20T10:00:54.577Z,1.38
2022-12-20T10:03:27.776Z,2.03
2022-12-20T10:06:01.009Z,1.40
2022-12-20T10:08:50.177Z,1.30
2022-12-20T10:11:41.910Z,1.58
2022-12-20T10:14:34.353Z,1.58
2022-12-20T10:17:37.110Z,1.25
2022-12-20T10:20:24.506Z,1.58
2022-12-20T10:23:29.353Z,1.40
2022-12-20T10:26:00.469Z,1.63
2022-12-20T10:28:35.492Z,1.58
2022-12-20T10:31:05.171Z,1.30
2022-12-20T10:33:32.155Z,1.50
2022-12-20T10:36:21.155Z,1.60
2022-12-20T10:38:51.282Z,1.45
2022-12-20T10:41:22.914Z,1.58
2022-12-20T10:43:56.323Z,1.70
2022-12-20T10:46:24.204Z,1.30
2022-12-20T10:48:51.593Z,1.00
2022-12-20T10:51:21.910Z,1.20
2022-12-20T10:53:56.593Z,1.50
2022-12-20T10:56:31.883Z,1.15
2022-12-20T10:59:01.519Z,1.73
2022-12-20T11:01:34.177Z,1.35
2022-12-20T11:04:02.371Z,1.50
2022-12-20T11:06:49.384Z,1.38
2022-12-20T11:09:34.698Z,1.55
2022-12-20T11:12:12.043Z,1.45
2022-12-20T11:14:40.681Z,1.30
2022-12-20T11:17:37.231Z,1.15
2022-12-20T11:20:22.593Z,1.70
2022-12-20T11:23:07.026Z,1.20
2022-12-20T11:25:43.201Z,1.50
2022-12-20T11:28:31.111Z,1.60
2022-12-20T11:31:04.254Z,1.30
2022-12-20T11:33:50.919Z,1.42
2022-12-20T11:36:43.490Z,1.63
2022-12-20T11:39:23.451Z,1.80
2022-12-20T11:42:02.289Z,1.65
2022-12-20T11:45:11.705Z,1.60
2022-12-20T11:48:11.520Z,1.83
2022-12-20T11:50:59.210Z,1.40
2022-12-20T11:54:04.222Z,1.60
2022-12-20T11:56:38.621Z,1.77
2022-12-20T11:59:31.247Z,1.70
2022-12-20T12:02:10.308Z,1.40
2022-12-20T12:05:00.810Z,1.33
2022-12-20T12:07:31.420Z,1.17
2022-12-20T12:10:24.354Z,1.40
2022-12-20T12:13:07.046Z,1.52
2022-12-20T12:16:16.234Z,1.23
2022-12-20T12:18:43.105Z,1.20
2022-12-20T12:21:28.683Z,1.30
2022-12-20T12:24:17.284Z,1.58
2022-12-20T12:26:44.497Z,1.40
2022-12-20T12:29:14.050Z,1.30
2022-12-20T12:31:45.977Z,1.40
2022-12-20T12:34:37.827Z,1.42
2022-12-20T12:37:38.973Z,1.20
2022-12-20T12:40:24.990Z,1.40
2022-12-20T12:43:10.401Z,1.67
2022-12-20T12:45:58.752Z,1.80
2022-12-20T12:48:54.481Z,1.80
2022-12-20T12:51:34.767Z,1.90
2022-12-20T12:54:18.529Z,2.45
2022-12-20T12:56:49.403Z,2.75
2022-12-20T12:59:48.071Z,2.45
2022-12-20T13:02:15.568Z,2.45
2022-12-20T13:05:06.224Z,1.83
2022-12-20T13:07:32.852Z,2.13
2022-12-20T13:10:25.058Z,1.75
2022-12-20T13:12:52.487Z,1.40
2022-12-20T13:15:21.912Z,2.00
2022-12-20T13:17:56.484Z,1.85
2022-12-20T13:20:24.358Z,1.50
2022-12-20T13:23:09.278Z,1.63
2022-12-20T13:25:37.487Z,1.45
2022-12-20T13:28:19.084Z,1.90
2022-12-20T13:30:47.836Z,1.70
2022-12-20T13:33:23.430Z,1.60
2022-12-20T13:36:32.845Z,1.60
2022-12-20T13:39:01.785Z,1.60
2022-12-20T13:41:38.097Z,1.50
2022-12-20T13:44:17.985Z,1.58
2022-12-20T13:47:06.967Z,1.58
2022-12-20T13:49:39.557Z,1.63
2022-12-20T13:52:12.223Z,2.00
2022-12-20T13:54:47.139Z,1.77
2022-12-20T13:57:21.652Z,2.10
2022-12-20T13:59:49.675Z,2.80
2022-12-20T14:02:22.829Z,2.22
2022-12-20T14:05:15.677Z,1.67
2022-12-20T14:07:43.463Z,2.00
2022-12-20T14:10:19.206Z,1.67
2022-12-20T14:12:46.427Z,2.35
2022-12-20T14:15:34.370Z,2.00
2022-12-20T14:18:16.068Z,1.80
2022-12-20T14:20:43.630Z,1.85
2022-12-20T14:23:14.687Z,2.08
2022-12-20T14:25:47.430Z,2.05
2022-12-20T14:28:31.476Z,1.60
2022-12-20T14:31:01.204Z,2.00
2022-12-20T14:33:39.510Z,2.10
2022-12-20T14:36:19.212Z,2.13
2022-12-20T14:38:48.851Z,2.45
2022-12-20T14:41:35.304Z,2.40
2022-12-20T14:44:26.688Z,2.90
2022-12-20T14:46:56.158Z,3.03
2022-12-20T14:49:38.365Z,3.33
2022-12-20T14:52:10.899Z,2.72
2022-12-20T14:55:07.919Z,3.40
2022-12-20T14:57:35.259Z,3.30
2022-12-20T15:00:13.372Z,2.85
2022-12-20T15:03:00.081Z,3.30
2022-12-20T15:05:36.407Z,3.45
2022-12-20T15:08:19.244Z,3.58
2022-12-20T15:11:07.734Z,3.28
2022-12-20T15:13:51.321Z,3.00
2022-12-20T15:16:23.474Z,2.90
2022-12-20T15:18:55.317Z,3.20
2022-12-20T15:21:40.874Z,3.25
2022-12-20T15:24:12.550Z,2.88
2022-12-20T15:26:39.440Z,3.10
2022-12-20T15:29:06.442Z,3.03
2022-12-20T15:31:36.898Z,3.42
2022-12-20T15:34:15.684Z,3.80
2022-12-20T15:36:42.441Z,3.30
2022-12-20T15:39:13.666Z,3.30
2022-12-20T15:41:46.188Z,3.40
2022-12-20T15:44:19.573Z,3.17
2022-12-20T15:46:46.569Z,3.95
2022-12-20T15:49:15.935Z,3.95
2022-12-20T15:51:44.377Z,4.55
2022-12-20T15:54:37.477Z,4.78
2022-12-20T15:57:09.215Z,5.38
2022-12-20T16:02:26.211Z,5.43
2022-12-20T16:04:54.312Z,4.72
2022-12-20T16:07:21.332Z,4.60
2022-12-20T16:09:48.031Z,4.68
2022-12-20T16:12:18.380Z,4.07
2022-12-20T16:14:45.161Z,4.80
2022-12-20T16:17:15.762Z,4.30
2022-12-20T16:19:43.731Z,4.93
2022-12-20T16:22:22.342Z,4.97
2022-12-20T16:24:49.666Z,5.03
2022-12-20T16:27:16.373Z,5.18
2022-12-20T16:29:43.046Z,4.50
2022-12-20T16:32:17.918Z,4.45
2022-12-20T16:34:45.502Z,5.00
2022-12-20T16:37:12.470Z,4.40
2022-12-20T16:39:39.346Z,4.43
2022-12-20T16:42:16.121Z,4.15
2022-12-20T16:44:44.912Z,4.38
2022-12-20T16:47:12.590Z,4.10
2022-12-20T16:49:40.294Z,4.40
2022-12-20T16:52:17.103Z,4.30
2022-12-20T16:54:43.770Z,4.70
2022-12-20T16:57:10.461Z,4.18
2022-12-20T16:59:37.113Z,3.80
2022-12-20T17:02:11.696Z,4.93
2022-12-20T17:04:38.475Z,5.43
2022-12-20T17:07:05.104Z,4.72
2022-12-20T17:09:31.734Z,4.80
2022-12-20T17:11:59.003Z,4.97
2022-12-20T17:14:25.686Z,5.35
2022-12-20T17:16:52.370Z,5.00
2022-12-20T17:19:19.414Z,5.55
2022-12-20T17:24:32.499Z,6.15
2022-12-20T17:27:00.147Z,8.35
2022-12-20T17:29:27.075Z,7.20
2022-12-20T17:31:53.888Z,8.73
2022-12-20T17:34:28.850Z,7.93
2022-12-20T17:36:57.291Z,7.15
2022-12-20T17:39:25.461Z,7.35
2022-12-20T17:41:52.886Z,6.85
2022-12-20T17:44:25.353Z,7.70
2022-12-20T17:46:52.950Z,6.35
2022-12-20T17:49:20.155Z,7.40
2022-12-20T17:51:46.992Z,6.32
2022-12-20T17:54:19.396Z,6.15
2022-12-20T17:56:46.680Z,5.25
2022-12-20T17:59:14.046Z,5.97
2022-12-20T18:01:41.831Z,5.40
2022-12-20T18:04:11.263Z,6.47
2022-12-20T18:06:39.847Z,6.57
2022-12-20T18:09:16.013Z,6.25
2022-12-20T18:11:43.747Z,5.60
2022-12-20T18:14:11.065Z,6.38
2022-12-20T18:16:41.157Z,6.70
2022-12-20T18:19:14.349Z,6.82
2022-12-20T18:21:41.683Z,7.03
2022-12-20T18:24:11.628Z,7.35
2022-12-20T18:26:38.366Z,6.53
2022-12-20T18:29:05.084Z,6.50
2022-12-20T18:31:34.405Z,7.45
2022-12-20T18:34:02.383Z,7.78
2022-12-20T18:36:31.644Z,7.35
2022-12-20T18:39:00.210Z,6.63
2022-12-20T18:41:29.187Z,6.60
2022-12-20T18:44:01.425Z,6.25
2022-12-20T18:46:28.830Z,5.97
2022-12-20T18:48:59.082Z,6.57
2022-12-20T18:51:31.406Z,6.00
2022-12-20T18:53:59.187Z,5.97
2022-12-20T18:56:29.464Z,6.45
2022-12-20T18:58:56.897Z,6.78
2022-12-20T19:01:26.320Z,7.15
2022-12-20T19:03:54.240Z,6.47
2022-12-20T19:06:22.191Z,6.13
2022-12-20T19:08:49.414Z,6.22
2022-12-20T19:11:20.086Z,5.82
2022-12-20T19:13:47.341Z,5.75
2022-12-20T19:16:16.924Z,6.43
2022-12-20T19:18:44.574Z,6.40
2022-12-20T19:21:14.028Z,5.90
2022-12-20T19:23:41.918Z,6.63
2022-12-20T19:26:11.807Z,6.35
2022-12-20T19:28:39.623Z,6.70
2022-12-20T19:31:22.087Z,6.82
2022-12-20T19:33:50.479Z,7.30
2022-12-20T19:36:23.037Z,7.18
2022-12-20T19:38:52.035Z,6.70
2022-12-20T19:41:20.147Z,6.90
2022-12-20T19:43:47.828Z,6.57
2022-12-20T19:46:15.467Z,6.85
2022-12-20T19:48:42.571Z,6.57
2022-12-20T19:51:12.135Z,6.05
2022-12-20T19:53:40.580Z,6.38
2022-12-20T19:56:08.607Z,6.05
2022-12-20T19:58:36.084Z,5.95
2022-12-20T20:01:04.975Z,6.93
2022-12-20T20:03:32.575Z,6.28
2022-12-20T20:05:59.857Z,6.70
2022-12-20T20:08:26.580Z,5.65
2022-12-20T20:10:55.156Z,5.68
2022-12-20T20:13:22.853Z,6.22
2022-12-20T20:15:55.056Z,6.28
2022-12-20T20:18:22.224Z,6.20
2022-12-20T20:20:49.254Z,6.32
2022-12-20T20:23:16.479Z,5.60
2022-12-20T20:25:47.726Z,6.28
2022-12-20T20:28:14.817Z,5.57
2022-12-20T20:30:42.777Z,6.38
2022-12-20T20:33:10.064Z,5.63
2022-12-20T20:35:36.764Z,5.93
2022-12-20T20:38:03.611Z,6.72
2022-12-20T20:40:30.452Z,6.90
2022-12-20T20:42:57.120Z,6.70
2022-12-20T20:45:23.826Z,7.00
2022-12-20T20:47:50.487Z,7.10
2022-12-20T20:50:18.074Z,6.93
2022-12-20T20:52:44.695Z,6.63
2022-12-20T20:55:11.357Z,6.90
2022-12-20T20:57:38.050Z,6.68
2022-12-20T21:00:07.066Z,6.72
2022-12-20T21:02:34.021Z,7.70
2022-12-20T21:05:52.025Z,6.47
2022-12-20T21:07:47.622Z,7.38
2022-12-20T21:10:14.540Z,6.97
2022-12-20T21:12:41.291Z,6.28
2022-12-20T21:15:24.615Z,6.07
2022-12-20T21:17:51.559Z,6.88
2022-12-20T21:20:23.815Z,6.53
2022-12-20T21:22:52.277Z,6.55
2022-12-20T21:25:18.909Z,5.78
2022-12-20T21:27:45.726Z,6.22
2022-12-20T21:30:12.922Z,6.03
2022-12-20T21:32:39.606Z,5.47
2022-12-20T21:35:06.651Z,6.20
2022-12-20T21:37:33.359Z,5.15
2022-12-20T21:40:00.085Z,5.90
2022-12-20T21:42:26.714Z,5.80
2022-12-20T21:44:53.415Z,5.53
2022-12-20T21:47:20.125Z,5.38
2022-12-20T21:49:46.743Z,5.68
2022-12-20T21:52:13.636Z,6.40
2022-12-20T21:54:40.535Z,6.97
2022-12-20T21:57:07.160Z,7.68
2022-12-20T21:59:33.858Z,7.53
2022-12-20T22:02:00.746Z,7.13
2022-12-20T22:04:27.657Z,6.93
2022-12-20T22:06:54.336Z,7.30
2022-12-20T22:09:20.997Z,7.30
2022-12-20T22:11:50.480Z,7.03
2022-12-20T22:14:17.141Z,8.23
2022-12-20T22:16:44.019Z,5.97
2022-12-20T22:19:14.581Z,6.28
2022-12-20T22:21:41.617Z,6.20
2022-12-20T22:24:09.261Z,5.43
2022-12-20T22:26:36.734Z,5.70
2022-12-20T22:29:05.601Z,5.50
2022-12-20T22:31:33.147Z,5.32
2022-12-20T22:34:00.610Z,6.40
2022-12-20T22:36:27.743Z,5.55
2022-12-20T22:38:55.699Z,5.97
2022-12-20T22:41:25.084Z,5.38
2022-12-20T22:43:52.795Z,5.35
2022-12-20T22:46:20.077Z,5.32
2022-12-20T22:48:47.375Z,5.00
2022-12-20T22:51:17.464Z,5.30
2022-12-20T22:53:44.909Z,5.45
2022-12-20T22:56:12.009Z,5.45
2022-12-20T22:58:39.750Z,5.22
2022-12-20T23:01:08.493Z,5.43
2022-12-20T23:03:36.194Z,5.65
2022-12-20T23:06:05.637Z,5.45
2022-12-20T23:08:35.128Z,5.47
2022-12-20T23:11:21.304Z,5.43
2022-12-20T23:14:06.607Z,5.43
2022-12-20T23:16:33.331Z,5.68
2022-12-20T23:19:02.158Z,5.80
2022-12-20T23:21:47.592Z,5.70
2022-12-20T23:24:14.796Z,5.05
2022-12-20T23:26:42.778Z,5.70
2022-12-20T23:29:11.238Z,5.57
2022-12-20T23:31:37.906Z,5.22
2022-12-20T23:34:05.342Z,5.40
2022-12-20T23:36:35.165Z,5.75
2022-12-20T23:39:02.378Z,5.10
2022-12-20T23:41:29.365Z,5.22
2022-12-20T23:43:56.411Z,5.15
2022-12-20T23:46:23.191Z,5.75
2022-12-20T23:48:51.668Z,5.90
2022-12-20T23:51:19.358Z,5.20
2022-12-20T23:53:46.026Z,6.43
2022-12-20T23:56:15.857Z,6.03
2022-12-20T23:58:44.640Z,5.10
